sensor_id;sensor_type;location;lat;lon;timestamp;P1;durP1;ratioP1;P2;durP2;ratioP2
6131;SDS011;3097;42.692;23.278;2022-11-11T00:01:42;71.43;;;34.70;;
6131;SDS011;3097;42.692;23.278;2022-11-11T00:04:07;64.23;;;29.80;;
6131;SDS011;3097;42.692;23.278;2022-11-11T00:06:33;57.03;;;27.57;;
6131;SDS011;3097;42.692;23.278;2022-11-11T00:08:58;60.33;;;26.60;;
6131;SDS011;3097;42.692;23.278;2022-11-11T00:11:24;58.20;;;28.23;;
6131;SDS011;3097;42.692;23.278;2022-11-11T00:13:49;56.27;;;26.77;;
6131;SDS011;3097;42.692;23.278;2022-11-11T00:16:16;52.27;;;24.73;;
6131;SDS011;3097;42.692;23.278;2022-11-11T00:18:44;37.93;;;18.30;;
6131;SDS011;3097;42.692;23.278;2022-11-11T00:21:28;38.53;;;17.57;;
6131;SDS011;3097;42.692;23.278;2022-11-11T00:24:32;36.70;;;17.10;;
6131;SDS011;3097;42.692;23.278;2022-11-11T00:27:16;36.37;;;17.73;;
6131;SDS011;3097;42.692;23.278;2022-11-11T00:29:45;35.97;;;18.50;;
6131;SDS011;3097;42.692;23.278;2022-11-11T00:32:11;36.73;;;17.70;;
6131;SDS011;3097;42.692;23.278;2022-11-11T00:34:52;43.67;;;20.27;;
6131;SDS011;3097;42.692;23.278;2022-11-11T00:37:37;38.90;;;20.00;;
6131;SDS011;3097;42.692;23.278;2022-11-11T00:40:03;41.00;;;20.33;;
6131;SDS011;3097;42.692;23.278;2022-11-11T00:42:29;38.33;;;20.20;;
6131;SDS011;3097;42.692;23.278;2022-11-11T00:44:54;36.00;;;18.23;;
6131;SDS011;3097;42.692;23.278;2022-11-11T00:47:20;36.10;;;17.93;;
6131;SDS011;3097;42.692;23.278;2022-11-11T00:50:05;33.97;;;18.13;;
6131;SDS011;3097;42.692;23.278;2022-11-11T00:52:53;36.27;;;19.03;;
6131;SDS011;3097;42.692;23.278;2022-11-11T00:55:19;32.07;;;17.10;;
6131;SDS011;3097;42.692;23.278;2022-11-11T00:57:44;35.00;;;17.70;;
6131;SDS011;3097;42.692;23.278;2022-11-11T01:00:11;33.53;;;17.37;;
6131;SDS011;3097;42.692;23.278;2022-11-11T01:02:37;35.63;;;16.80;;
6131;SDS011;3097;42.692;23.278;2022-11-11T01:05:02;35.97;;;18.73;;
6131;SDS011;3097;42.692;23.278;2022-11-11T01:07:28;30.67;;;17.03;;
6131;SDS011;3097;42.692;23.278;2022-11-11T01:09:53;36.87;;;18.00;;
6131;SDS011;3097;42.692;23.278;2022-11-11T01:12:19;36.37;;;19.07;;
6131;SDS011;3097;42.692;23.278;2022-11-11T01:14:44;31.77;;;17.47;;
6131;SDS011;3097;42.692;23.278;2022-11-11T01:17:09;35.13;;;17.70;;
6131;SDS011;3097;42.692;23.278;2022-11-11T01:19:35;34.63;;;17.97;;
6131;SDS011;3097;42.692;23.278;2022-11-11T01:22:00;33.23;;;17.17;;
6131;SDS011;3097;42.692;23.278;2022-11-11T01:24:27;34.97;;;18.23;;
6131;SDS011;3097;42.692;23.278;2022-11-11T01:26:52;37.17;;;18.50;;
6131;SDS011;3097;42.692;23.278;2022-11-11T01:29:18;36.07;;;17.20;;
6131;SDS011;3097;42.692;23.278;2022-11-11T01:31:43;34.63;;;17.47;;
6131;SDS011;3097;42.692;23.278;2022-11-11T01:34:09;33.00;;;17.70;;
6131;SDS011;3097;42.692;23.278;2022-11-11T01:36:35;35.20;;;17.97;;
6131;SDS011;3097;42.692;23.278;2022-11-11T01:39:00;33.73;;;17.27;;
6131;SDS011;3097;42.692;23.278;2022-11-11T01:41:28;36.43;;;17.80;;
6131;SDS011;3097;42.692;23.278;2022-11-11T01:46:37;34.00;;;17.17;;
6131;SDS011;3097;42.692;23.278;2022-11-11T01:54:20;34.87;;;17.60;;
6131;SDS011;3097;42.692;23.278;2022-11-11T01:56:56;37.47;;;17.90;;
6131;SDS011;3097;42.692;23.278;2022-11-11T01:59:28;42.07;;;19.23;;
6131;SDS011;3097;42.692;23.278;2022-11-11T02:01:56;36.57;;;18.17;;
6131;SDS011;3097;42.692;23.278;2022-11-11T02:04:21;44.03;;;21.13;;
6131;SDS011;3097;42.692;23.278;2022-11-11T02:07:06;40.60;;;20.10;;
6131;SDS011;3097;42.692;23.278;2022-11-11T02:09:34;47.20;;;22.13;;
6131;SDS011;3097;42.692;23.278;2022-11-11T02:12:03;40.80;;;21.17;;
6131;SDS011;3097;42.692;23.278;2022-11-11T02:14:53;41.70;;;21.50;;
6131;SDS011;3097;42.692;23.278;2022-11-11T02:17:21;42.93;;;21.77;;
6131;SDS011;3097;42.692;23.278;2022-11-11T02:19:49;41.90;;;20.60;;
6131;SDS011;3097;42.692;23.278;2022-11-11T02:22:31;40.40;;;20.83;;
6131;SDS011;3097;42.692;23.278;2022-11-11T02:25:01;36.87;;;19.80;;
6131;SDS011;3097;42.692;23.278;2022-11-11T02:27:28;38.10;;;19.93;;
6131;SDS011;3097;42.692;23.278;2022-11-11T02:29:56;40.63;;;21.17;;
6131;SDS011;3097;42.692;23.278;2022-11-11T02:32:24;40.53;;;21.03;;
6131;SDS011;3097;42.692;23.278;2022-11-11T02:34:49;38.40;;;19.93;;
6131;SDS011;3097;42.692;23.278;2022-11-11T02:37:16;40.33;;;20.93;;
6131;SDS011;3097;42.692;23.278;2022-11-11T02:39:45;42.03;;;19.77;;
6131;SDS011;3097;42.692;23.278;2022-11-11T02:42:13;43.10;;;20.53;;
6131;SDS011;3097;42.692;23.278;2022-11-11T02:44:40;39.47;;;20.43;;
6131;SDS011;3097;42.692;23.278;2022-11-11T02:47:05;38.50;;;19.60;;
6131;SDS011;3097;42.692;23.278;2022-11-11T02:49:31;36.67;;;19.17;;
6131;SDS011;3097;42.692;23.278;2022-11-11T02:51:57;40.73;;;20.07;;
6131;SDS011;3097;42.692;23.278;2022-11-11T02:54:22;40.67;;;21.30;;
6131;SDS011;3097;42.692;23.278;2022-11-11T02:56:51;42.67;;;21.43;;
6131;SDS011;3097;42.692;23.278;2022-11-11T02:59:31;43.90;;;20.27;;
6131;SDS011;3097;42.692;23.278;2022-11-11T03:01:57;47.80;;;22.90;;
6131;SDS011;3097;42.692;23.278;2022-11-11T03:04:22;44.83;;;22.47;;
6131;SDS011;3097;42.692;23.278;2022-11-11T03:06:48;46.50;;;22.80;;
6131;SDS011;3097;42.692;23.278;2022-11-11T03:09:14;47.80;;;23.47;;
6131;SDS011;3097;42.692;23.278;2022-11-11T03:11:39;45.33;;;22.57;;
6131;SDS011;3097;42.692;23.278;2022-11-11T03:14:05;46.50;;;23.13;;
6131;SDS011;3097;42.692;23.278;2022-11-11T03:16:32;40.77;;;20.90;;
6131;SDS011;3097;42.692;23.278;2022-11-11T03:19:16;41.47;;;20.47;;
6131;SDS011;3097;42.692;23.278;2022-11-11T03:21:42;43.80;;;21.80;;
6131;SDS011;3097;42.692;23.278;2022-11-11T03:24:10;45.87;;;21.67;;
6131;SDS011;3097;42.692;23.278;2022-11-11T03:26:36;41.50;;;22.30;;
6131;SDS011;3097;42.692;23.278;2022-11-11T03:29:01;45.60;;;21.83;;
6131;SDS011;3097;42.692;23.278;2022-11-11T03:31:27;41.93;;;22.07;;
6131;SDS011;3097;42.692;23.278;2022-11-11T03:33:52;42.13;;;22.33;;
6131;SDS011;3097;42.692;23.278;2022-11-11T03:36:18;44.20;;;23.67;;
6131;SDS011;3097;42.692;23.278;2022-11-11T03:38:43;52.13;;;24.90;;
6131;SDS011;3097;42.692;23.278;2022-11-11T03:41:09;53.03;;;26.83;;
6131;SDS011;3097;42.692;23.278;2022-11-11T03:43:34;51.87;;;28.03;;
6131;SDS011;3097;42.692;23.278;2022-11-11T03:46:00;55.43;;;26.60;;
6131;SDS011;3097;42.692;23.278;2022-11-11T03:48:30;46.37;;;24.20;;
6131;SDS011;3097;42.692;23.278;2022-11-11T03:50:57;43.90;;;22.97;;
6131;SDS011;3097;42.692;23.278;2022-11-11T03:53:22;43.37;;;22.70;;
6131;SDS011;3097;42.692;23.278;2022-11-11T03:55:48;43.47;;;24.10;;
6131;SDS011;3097;42.692;23.278;2022-11-11T03:58:15;46.27;;;23.77;;
6131;SDS011;3097;42.692;23.278;2022-11-11T04:00:41;43.47;;;23.07;;
6131;SDS011;3097;42.692;23.278;2022-11-11T04:03:09;42.43;;;21.87;;
6131;SDS011;3097;42.692;23.278;2022-11-11T04:05:58;44.00;;;22.67;;
6131;SDS011;3097;42.692;23.278;2022-11-11T04:08:42;44.43;;;22.67;;
6131;SDS011;3097;42.692;23.278;2022-11-11T04:11:31;42.67;;;22.00;;
6131;SDS011;3097;42.692;23.278;2022-11-11T04:13:58;43.63;;;22.07;;
6131;SDS011;3097;42.692;23.278;2022-11-11T04:16:45;46.17;;;23.47;;
6131;SDS011;3097;42.692;23.278;2022-11-11T04:19:10;51.90;;;24.87;;
6131;SDS011;3097;42.692;23.278;2022-11-11T04:21:54;46.87;;;25.17;;
6131;SDS011;3097;42.692;23.278;2022-11-11T04:24:20;49.37;;;25.17;;
6131;SDS011;3097;42.692;23.278;2022-11-11T04:27:06;50.90;;;25.23;;
6131;SDS011;3097;42.692;23.278;2022-11-11T04:29:36;49.63;;;25.40;;
6131;SDS011;3097;42.692;23.278;2022-11-11T04:32:03;48.17;;;25.33;;
6131;SDS011;3097;42.692;23.278;2022-11-11T04:34:49;47.77;;;25.07;;
6131;SDS011;3097;42.692;23.278;2022-11-11T04:37:17;44.03;;;23.13;;
6131;SDS011;3097;42.692;23.278;2022-11-11T04:39:43;41.17;;;20.47;;
6131;SDS011;3097;42.692;23.278;2022-11-11T04:42:28;40.20;;;20.93;;
6131;SDS011;3097;42.692;23.278;2022-11-11T04:44:55;39.23;;;20.20;;
6131;SDS011;3097;42.692;23.278;2022-11-11T04:47:56;38.23;;;20.40;;
6131;SDS011;3097;42.692;23.278;2022-11-11T04:52:59;39.47;;;19.90;;
6131;SDS011;3097;42.692;23.278;2022-11-11T04:55:25;36.70;;;20.03;;
6131;SDS011;3097;42.692;23.278;2022-11-11T04:58:10;37.90;;;19.77;;
6131;SDS011;3097;42.692;23.278;2022-11-11T05:00:36;38.03;;;19.20;;
6131;SDS011;3097;42.692;23.278;2022-11-11T05:03:02;34.30;;;19.10;;
6131;SDS011;3097;42.692;23.278;2022-11-11T05:05:40;38.23;;;19.87;;
6131;SDS011;3097;42.692;23.278;2022-11-11T05:08:25;33.20;;;18.23;;
6131;SDS011;3097;42.692;23.278;2022-11-11T05:11:09;37.40;;;20.03;;
6131;SDS011;3097;42.692;23.278;2022-11-11T05:13:35;35.23;;;18.53;;
6131;SDS011;3097;42.692;23.278;2022-11-11T05:16:20;37.73;;;19.80;;
6131;SDS011;3097;42.692;23.278;2022-11-11T05:19:07;36.83;;;20.17;;
6131;SDS011;3097;42.692;23.278;2022-11-11T05:21:54;39.70;;;20.17;;
6131;SDS011;3097;42.692;23.278;2022-11-11T05:24:24;37.87;;;19.67;;
6131;SDS011;3097;42.692;23.278;2022-11-11T05:27:08;31.23;;;17.83;;
6131;SDS011;3097;42.692;23.278;2022-11-11T05:29:34;33.20;;;18.30;;
6131;SDS011;3097;42.692;23.278;2022-11-11T05:32:00;31.27;;;17.33;;
6131;SDS011;3097;42.692;23.278;2022-11-11T05:34:26;28.00;;;16.20;;
6131;SDS011;3097;42.692;23.278;2022-11-11T05:36:51;25.10;;;14.73;;
6131;SDS011;3097;42.692;23.278;2022-11-11T05:39:16;27.07;;;14.40;;
6131;SDS011;3097;42.692;23.278;2022-11-11T05:41:42;28.17;;;15.27;;
6131;SDS011;3097;42.692;23.278;2022-11-11T05:44:07;26.83;;;14.57;;
6131;SDS011;3097;42.692;23.278;2022-11-11T05:46:33;26.83;;;14.90;;
6131;SDS011;3097;42.692;23.278;2022-11-11T05:48:58;32.07;;;15.63;;
6131;SDS011;3097;42.692;23.278;2022-11-11T05:51:45;28.70;;;16.03;;
6131;SDS011;3097;42.692;23.278;2022-11-11T05:54:14;27.87;;;15.57;;
6131;SDS011;3097;42.692;23.278;2022-11-11T05:56:39;31.37;;;17.17;;
6131;SDS011;3097;42.692;23.278;2022-11-11T05:59:05;32.43;;;17.37;;
6131;SDS011;3097;42.692;23.278;2022-11-11T06:01:31;50.57;;;24.47;;
6131;SDS011;3097;42.692;23.278;2022-11-11T06:03:57;36.87;;;19.53;;
6131;SDS011;3097;42.692;23.278;2022-11-11T06:06:22;36.13;;;19.43;;
6131;SDS011;3097;42.692;23.278;2022-11-11T06:08:48;30.33;;;16.40;;
6131;SDS011;3097;42.692;23.278;2022-11-11T06:11:13;29.23;;;17.37;;
6131;SDS011;3097;42.692;23.278;2022-11-11T06:13:39;33.40;;;17.93;;
6131;SDS011;3097;42.692;23.278;2022-11-11T06:16:04;32.67;;;18.07;;
6131;SDS011;3097;42.692;23.278;2022-11-11T06:18:30;31.87;;;17.60;;
6131;SDS011;3097;42.692;23.278;2022-11-11T06:20:56;30.90;;;17.53;;
6131;SDS011;3097;42.692;23.278;2022-11-11T06:23:23;33.20;;;17.13;;
6131;SDS011;3097;42.692;23.278;2022-11-11T06:25:49;29.20;;;16.00;;
6131;SDS011;3097;42.692;23.278;2022-11-11T06:28:33;26.83;;;15.10;;
6131;SDS011;3097;42.692;23.278;2022-11-11T06:30:59;29.97;;;15.67;;
6131;SDS011;3097;42.692;23.278;2022-11-11T06:33:24;33.53;;;15.47;;
6131;SDS011;3097;42.692;23.278;2022-11-11T06:35:50;25.17;;;15.10;;
6131;SDS011;3097;42.692;23.278;2022-11-11T06:38:15;27.47;;;15.20;;
6131;SDS011;3097;42.692;23.278;2022-11-11T06:40:41;29.33;;;15.70;;
6131;SDS011;3097;42.692;23.278;2022-11-11T06:43:08;28.00;;;15.43;;
6131;SDS011;3097;42.692;23.278;2022-11-11T06:45:33;31.43;;;16.63;;
6131;SDS011;3097;42.692;23.278;2022-11-11T06:48:00;31.40;;;16.90;;
6131;SDS011;3097;42.692;23.278;2022-11-11T06:50:26;30.63;;;16.57;;
6131;SDS011;3097;42.692;23.278;2022-11-11T06:52:53;26.27;;;14.83;;
6131;SDS011;3097;42.692;23.278;2022-11-11T06:55:18;27.97;;;15.93;;
6131;SDS011;3097;42.692;23.278;2022-11-11T06:57:43;29.67;;;16.40;;
6131;SDS011;3097;42.692;23.278;2022-11-11T07:00:09;26.73;;;15.67;;
6131;SDS011;3097;42.692;23.278;2022-11-11T07:02:35;31.23;;;16.30;;
6131;SDS011;3097;42.692;23.278;2022-11-11T07:05:00;28.10;;;14.50;;
6131;SDS011;3097;42.692;23.278;2022-11-11T07:07:26;27.90;;;15.77;;
6131;SDS011;3097;42.692;23.278;2022-11-11T07:09:52;24.67;;;14.43;;
6131;SDS011;3097;42.692;23.278;2022-11-11T07:12:19;28.50;;;15.73;;
6131;SDS011;3097;42.692;23.278;2022-11-11T07:14:45;27.47;;;15.10;;
6131;SDS011;3097;42.692;23.278;2022-11-11T07:17:11;30.23;;;14.20;;
6131;SDS011;3097;42.692;23.278;2022-11-11T07:19:36;26.67;;;13.87;;
6131;SDS011;3097;42.692;23.278;2022-11-11T07:22:02;23.93;;;13.37;;
6131;SDS011;3097;42.692;23.278;2022-11-11T07:24:27;27.80;;;15.07;;
6131;SDS011;3097;42.692;23.278;2022-11-11T07:26:53;27.30;;;14.07;;
6131;SDS011;3097;42.692;23.278;2022-11-11T07:29:18;25.73;;;14.73;;
6131;SDS011;3097;42.692;23.278;2022-11-11T07:31:44;28.50;;;15.97;;
6131;SDS011;3097;42.692;23.278;2022-11-11T07:34:09;34.40;;;19.40;;
6131;SDS011;3097;42.692;23.278;2022-11-11T07:36:34;30.67;;;16.07;;
6131;SDS011;3097;42.692;23.278;2022-11-11T07:39:00;31.47;;;16.03;;
6131;SDS011;3097;42.692;23.278;2022-11-11T07:41:26;27.57;;;15.23;;
6131;SDS011;3097;42.692;23.278;2022-11-11T07:43:51;29.23;;;15.17;;
6131;SDS011;3097;42.692;23.278;2022-11-11T07:46:17;29.93;;;14.93;;
6131;SDS011;3097;42.692;23.278;2022-11-11T07:48:42;29.40;;;15.23;;
6131;SDS011;3097;42.692;23.278;2022-11-11T07:51:08;26.93;;;13.40;;
6131;SDS011;3097;42.692;23.278;2022-11-11T07:53:33;29.63;;;15.03;;
6131;SDS011;3097;42.692;23.278;2022-11-11T07:55:59;26.80;;;13.73;;
6131;SDS011;3097;42.692;23.278;2022-11-11T07:58:24;21.87;;;12.93;;
6131;SDS011;3097;42.692;23.278;2022-11-11T08:00:50;22.47;;;13.10;;
6131;SDS011;3097;42.692;23.278;2022-11-11T08:03:15;29.23;;;14.67;;
6131;SDS011;3097;42.692;23.278;2022-11-11T08:05:41;25.97;;;14.73;;
6131;SDS011;3097;42.692;23.278;2022-11-11T08:08:07;33.23;;;16.73;;
6131;SDS011;3097;42.692;23.278;2022-11-11T08:10:33;38.07;;;19.23;;
6131;SDS011;3097;42.692;23.278;2022-11-11T08:12:59;50.53;;;27.07;;
6131;SDS011;3097;42.692;23.278;2022-11-11T08:15:45;37.43;;;20.57;;
6131;SDS011;3097;42.692;23.278;2022-11-11T08:18:11;25.33;;;15.17;;
6131;SDS011;3097;42.692;23.278;2022-11-11T08:20:36;19.07;;;11.87;;
6131;SDS011;3097;42.692;23.278;2022-11-11T08:23:02;23.60;;;12.73;;
6131;SDS011;3097;42.692;23.278;2022-11-11T08:25:34;22.53;;;12.23;;
6131;SDS011;3097;42.692;23.278;2022-11-11T08:28:00;21.83;;;12.87;;
6131;SDS011;3097;42.692;23.278;2022-11-11T08:30:28;23.03;;;12.90;;
6131;SDS011;3097;42.692;23.278;2022-11-11T08:35:27;23.27;;;12.77;;
6131;SDS011;3097;42.692;23.278;2022-11-11T08:37:53;22.63;;;12.83;;
6131;SDS011;3097;42.692;23.278;2022-11-11T08:40:19;23.23;;;13.23;;
6131;SDS011;3097;42.692;23.278;2022-11-11T08:42:45;24.47;;;13.13;;
6131;SDS011;3097;42.692;23.278;2022-11-11T08:45:10;25.60;;;13.63;;
6131;SDS011;3097;42.692;23.278;2022-11-11T08:47:36;21.37;;;12.83;;
6131;SDS011;3097;42.692;23.278;2022-11-11T08:50:02;21.03;;;12.47;;
6131;SDS011;3097;42.692;23.278;2022-11-11T08:52:29;23.37;;;13.33;;
6131;SDS011;3097;42.692;23.278;2022-11-11T08:54:54;21.20;;;12.40;;
6131;SDS011;3097;42.692;23.278;2022-11-11T08:57:20;19.10;;;12.77;;
6131;SDS011;3097;42.692;23.278;2022-11-11T08:59:46;21.13;;;12.40;;
6131;SDS011;3097;42.692;23.278;2022-11-11T09:02:11;18.47;;;11.60;;
6131;SDS011;3097;42.692;23.278;2022-11-11T09:04:38;18.20;;;12.30;;
6131;SDS011;3097;42.692;23.278;2022-11-11T09:07:04;17.83;;;11.63;;
6131;SDS011;3097;42.692;23.278;2022-11-11T09:09:31;21.87;;;12.83;;
6131;SDS011;3097;42.692;23.278;2022-11-11T09:11:56;23.97;;;12.97;;
6131;SDS011;3097;42.692;23.278;2022-11-11T09:14:22;20.43;;;12.60;;
6131;SDS011;3097;42.692;23.278;2022-11-11T09:16:47;25.30;;;12.57;;
6131;SDS011;3097;42.692;23.278;2022-11-11T09:19:13;21.43;;;13.53;;
6131;SDS011;3097;42.692;23.278;2022-11-11T09:21:38;13.63;;;9.60;;
6131;SDS011;3097;42.692;23.278;2022-11-11T09:24:04;14.33;;;10.20;;
6131;SDS011;3097;42.692;23.278;2022-11-11T09:26:29;12.90;;;9.80;;
6131;SDS011;3097;42.692;23.278;2022-11-11T09:28:55;12.40;;;8.20;;
6131;SDS011;3097;42.692;23.278;2022-11-11T09:31:20;10.37;;;8.13;;
6131;SDS011;3097;42.692;23.278;2022-11-11T09:33:48;13.47;;;9.43;;
6131;SDS011;3097;42.692;23.278;2022-11-11T09:36:16;14.57;;;9.43;;
6131;SDS011;3097;42.692;23.278;2022-11-11T09:38:42;18.67;;;10.63;;
6131;SDS011;3097;42.692;23.278;2022-11-11T09:51:20;14.73;;;9.60;;
6131;SDS011;3097;42.692;23.278;2022-11-11T09:53:53;13.67;;;10.13;;
6131;SDS011;3097;42.692;23.278;2022-11-11T09:56:25;21.03;;;10.03;;
6131;SDS011;3097;42.692;23.278;2022-11-11T10:01:42;12.20;;;8.10;;
6131;SDS011;3097;42.692;23.278;2022-11-11T10:07:19;11.10;;;7.93;;
6131;SDS011;3097;42.692;23.278;2022-11-11T10:10:11;10.53;;;8.33;;
6131;SDS011;3097;42.692;23.278;2022-11-11T10:12:58;14.57;;;9.53;;
6131;SDS011;3097;42.692;23.278;2022-11-11T10:15:29;13.07;;;9.13;;
6131;SDS011;3097;42.692;23.278;2022-11-11T10:21:04;13.67;;;9.57;;
6131;SDS011;3097;42.692;23.278;2022-11-11T10:23:38;13.50;;;9.43;;
6131;SDS011;3097;42.692;23.278;2022-11-11T10:26:11;14.97;;;9.67;;
6131;SDS011;3097;42.692;23.278;2022-11-11T10:28:43;16.80;;;9.87;;
6131;SDS011;3097;42.692;23.278;2022-11-11T10:31:13;18.40;;;10.37;;
6131;SDS011;3097;42.692;23.278;2022-11-11T10:33:48;14.00;;;9.53;;
6131;SDS011;3097;42.692;23.278;2022-11-11T10:36:18;14.37;;;9.40;;
6131;SDS011;3097;42.692;23.278;2022-11-11T10:38:56;9.17;;;8.07;;
6131;SDS011;3097;42.692;23.278;2022-11-11T10:41:45;14.80;;;8.77;;
6131;SDS011;3097;42.692;23.278;2022-11-11T10:44:30;15.07;;;9.67;;
6131;SDS011;3097;42.692;23.278;2022-11-11T10:47:04;9.53;;;7.70;;
6131;SDS011;3097;42.692;23.278;2022-11-11T10:49:47;11.50;;;8.23;;
6131;SDS011;3097;42.692;23.278;2022-11-11T10:52:19;10.33;;;7.90;;
6131;SDS011;3097;42.692;23.278;2022-11-11T10:57:28;21.80;;;13.03;;
6131;SDS011;3097;42.692;23.278;2022-11-11T11:00:08;20.30;;;12.63;;
6131;SDS011;3097;42.692;23.278;2022-11-11T11:02:46;13.77;;;9.07;;
6131;SDS011;3097;42.692;23.278;2022-11-11T11:05:18;13.30;;;8.97;;
6131;SDS011;3097;42.692;23.278;2022-11-11T11:07:50;11.07;;;8.13;;
6131;SDS011;3097;42.692;23.278;2022-11-11T11:10:20;11.33;;;8.00;;
6131;SDS011;3097;42.692;23.278;2022-11-11T11:12:51;9.77;;;8.10;;
6131;SDS011;3097;42.692;23.278;2022-11-11T11:15:23;14.77;;;8.63;;
6131;SDS011;3097;42.692;23.278;2022-11-11T11:18:10;10.97;;;8.40;;
6131;SDS011;3097;42.692;23.278;2022-11-11T11:20:38;15.20;;;9.10;;
6131;SDS011;3097;42.692;23.278;2022-11-11T11:23:33;12.63;;;9.07;;
6131;SDS011;3097;42.692;23.278;2022-11-11T11:26:10;12.07;;;8.40;;
6131;SDS011;3097;42.692;23.278;2022-11-11T11:28:57;10.63;;;7.90;;
6131;SDS011;3097;42.692;23.278;2022-11-11T11:31:36;12.23;;;7.63;;
6131;SDS011;3097;42.692;23.278;2022-11-11T11:34:03;9.00;;;7.17;;
6131;SDS011;3097;42.692;23.278;2022-11-11T11:36:29;10.87;;;7.93;;
6131;SDS011;3097;42.692;23.278;2022-11-11T11:38:55;13.93;;;9.40;;
6131;SDS011;3097;42.692;23.278;2022-11-11T11:44:23;19.23;;;10.63;;
6131;SDS011;3097;42.692;23.278;2022-11-11T11:47:24;24.20;;;11.10;;
6131;SDS011;3097;42.692;23.278;2022-11-11T11:50:30;7.07;;;5.67;;
6131;SDS011;3097;42.692;23.278;2022-11-11T12:01:43;10.57;;;7.33;;
6131;SDS011;3097;42.692;23.278;2022-11-11T12:04:20;11.30;;;6.37;;
6131;SDS011;3097;42.692;23.278;2022-11-11T12:09:40;9.03;;;6.93;;
6131;SDS011;3097;42.692;23.278;2022-11-11T12:12:17;8.07;;;6.73;;
6131;SDS011;3097;42.692;23.278;2022-11-11T12:20:24;10.57;;;7.80;;
6131;SDS011;3097;42.692;23.278;2022-11-11T12:36:39;9.53;;;6.60;;
6131;SDS011;3097;42.692;23.278;2022-11-11T12:42:20;8.20;;;6.47;;
6131;SDS011;3097;42.692;23.278;2022-11-11T12:52:39;11.67;;;8.17;;
6131;SDS011;3097;42.692;23.278;2022-11-11T12:57:50;14.77;;;9.27;;
6131;SDS011;3097;42.692;23.278;2022-11-11T13:00:25;11.80;;;8.13;;
6131;SDS011;3097;42.692;23.278;2022-11-11T13:08:13;10.63;;;8.07;;
6131;SDS011;3097;42.692;23.278;2022-11-11T13:10:53;14.80;;;9.47;;
6131;SDS011;3097;42.692;23.278;2022-11-11T13:16:23;19.27;;;11.97;;
6131;SDS011;3097;42.692;23.278;2022-11-11T13:18:50;15.20;;;9.90;;
6131;SDS011;3097;42.692;23.278;2022-11-11T13:21:21;14.93;;;8.87;;
6131;SDS011;3097;42.692;23.278;2022-11-11T13:24:04;17.97;;;12.00;;
6131;SDS011;3097;42.692;23.278;2022-11-11T13:26:37;20.77;;;11.67;;
6131;SDS011;3097;42.692;23.278;2022-11-11T13:32:16;22.70;;;11.67;;
6131;SDS011;3097;42.692;23.278;2022-11-11T13:34:46;12.67;;;8.40;;
6131;SDS011;3097;42.692;23.278;2022-11-11T13:37:31;10.93;;;7.97;;
6131;SDS011;3097;42.692;23.278;2022-11-11T13:40:07;9.73;;;7.60;;
6131;SDS011;3097;42.692;23.278;2022-11-11T13:42:45;10.50;;;7.37;;
6131;SDS011;3097;42.692;23.278;2022-11-11T13:45:34;13.30;;;8.50;;
6131;SDS011;3097;42.692;23.278;2022-11-11T13:48:03;12.47;;;8.23;;
6131;SDS011;3097;42.692;23.278;2022-11-11T13:50:36;14.87;;;10.37;;
6131;SDS011;3097;42.692;23.278;2022-11-11T13:53:05;22.60;;;12.10;;
6131;SDS011;3097;42.692;23.278;2022-11-11T13:55:38;13.07;;;8.53;;
6131;SDS011;3097;42.692;23.278;2022-11-11T13:58:16;14.33;;;8.90;;
6131;SDS011;3097;42.692;23.278;2022-11-11T14:00:47;10.80;;;8.20;;
6131;SDS011;3097;42.692;23.278;2022-11-11T14:05:48;34.50;;;18.23;;
6131;SDS011;3097;42.692;23.278;2022-11-11T14:16:59;13.23;;;8.00;;
6131;SDS011;3097;42.692;23.278;2022-11-11T14:19:28;15.67;;;10.50;;
6131;SDS011;3097;42.692;23.278;2022-11-11T14:22:00;12.53;;;9.43;;
6131;SDS011;3097;42.692;23.278;2022-11-11T14:27:13;24.33;;;13.17;;
6131;SDS011;3097;42.692;23.278;2022-11-11T14:35:05;19.30;;;10.87;;
6131;SDS011;3097;42.692;23.278;2022-11-11T14:40:33;14.87;;;8.97;;
6131;SDS011;3097;42.692;23.278;2022-11-11T14:42:59;20.83;;;9.63;;
6131;SDS011;3097;42.692;23.278;2022-11-11T14:46:03;16.47;;;10.20;;
6131;SDS011;3097;42.692;23.278;2022-11-11T14:49:04;11.57;;;8.97;;
6131;SDS011;3097;42.692;23.278;2022-11-11T14:54:25;10.97;;;7.80;;
6131;SDS011;3097;42.692;23.278;2022-11-11T14:57:07;13.53;;;9.90;;
6131;SDS011;3097;42.692;23.278;2022-11-11T14:59:42;14.03;;;8.97;;
6131;SDS011;3097;42.692;23.278;2022-11-11T15:02:16;17.00;;;10.13;;
6131;SDS011;3097;42.692;23.278;2022-11-11T15:04:49;15.73;;;9.67;;
6131;SDS011;3097;42.692;23.278;2022-11-11T15:07:24;18.60;;;10.80;;
6131;SDS011;3097;42.692;23.278;2022-11-11T15:15:31;24.33;;;13.63;;
6131;SDS011;3097;42.692;23.278;2022-11-11T15:20:51;25.27;;;14.07;;
6131;SDS011;3097;42.692;23.278;2022-11-11T15:29:06;24.03;;;14.70;;
6131;SDS011;3097;42.692;23.278;2022-11-11T15:31:55;25.03;;;13.50;;
6131;SDS011;3097;42.692;23.278;2022-11-11T15:37:15;20.23;;;13.00;;
6131;SDS011;3097;42.692;23.278;2022-11-11T15:39:52;25.77;;;15.07;;
6131;SDS011;3097;42.692;23.278;2022-11-11T15:44:54;25.47;;;14.27;;
6131;SDS011;3097;42.692;23.278;2022-11-11T15:47:20;28.53;;;12.60;;
6131;SDS011;3097;42.692;23.278;2022-11-11T15:49:49;22.83;;;12.27;;
6131;SDS011;3097;42.692;23.278;2022-11-11T15:54:47;19.60;;;12.27;;
6131;SDS011;3097;42.692;23.278;2022-11-11T15:57:26;23.23;;;13.00;;
6131;SDS011;3097;42.692;23.278;2022-11-11T15:59:55;21.43;;;11.53;;
6131;SDS011;3097;42.692;23.278;2022-11-11T16:02:25;20.37;;;11.70;;
6131;SDS011;3097;42.692;23.278;2022-11-11T16:07:50;19.00;;;11.83;;
6131;SDS011;3097;42.692;23.278;2022-11-11T16:10:17;23.10;;;12.90;;
6131;SDS011;3097;42.692;23.278;2022-11-11T16:12:50;25.23;;;13.47;;
6131;SDS011;3097;42.692;23.278;2022-11-11T16:18:15;26.13;;;13.97;;
6131;SDS011;3097;42.692;23.278;2022-11-11T16:20:54;28.97;;;15.13;;
6131;SDS011;3097;42.692;23.278;2022-11-11T16:23:22;32.87;;;15.87;;
6131;SDS011;3097;42.692;23.278;2022-11-11T16:25:49;33.40;;;17.27;;
6131;SDS011;3097;42.692;23.278;2022-11-11T16:28:16;31.83;;;17.00;;
6131;SDS011;3097;42.692;23.278;2022-11-11T16:30:42;25.53;;;14.97;;
6131;SDS011;3097;42.692;23.278;2022-11-11T16:33:18;29.00;;;15.10;;
6131;SDS011;3097;42.692;23.278;2022-11-11T16:36:05;26.57;;;14.20;;
6131;SDS011;3097;42.692;23.278;2022-11-11T16:38:32;25.97;;;14.13;;
6131;SDS011;3097;42.692;23.278;2022-11-11T16:40:58;25.80;;;15.20;;
6131;SDS011;3097;42.692;23.278;2022-11-11T16:43:26;33.67;;;17.00;;
6131;SDS011;3097;42.692;23.278;2022-11-11T16:46:04;27.13;;;14.40;;
6131;SDS011;3097;42.692;23.278;2022-11-11T16:50:59;24.80;;;14.20;;
6131;SDS011;3097;42.692;23.278;2022-11-11T16:53:29;22.53;;;13.53;;
6131;SDS011;3097;42.692;23.278;2022-11-11T16:55:59;28.07;;;15.40;;
6131;SDS011;3097;42.692;23.278;2022-11-11T16:58:26;30.97;;;16.00;;
6131;SDS011;3097;42.692;23.278;2022-11-11T17:00:59;28.50;;;15.97;;
6131;SDS011;3097;42.692;23.278;2022-11-11T17:03:27;25.43;;;12.93;;
6131;SDS011;3097;42.692;23.278;2022-11-11T17:05:57;27.07;;;14.63;;
6131;SDS011;3097;42.692;23.278;2022-11-11T17:11:00;29.57;;;14.73;;
6131;SDS011;3097;42.692;23.278;2022-11-11T17:13:26;24.13;;;13.30;;
6131;SDS011;3097;42.692;23.278;2022-11-11T17:15:53;24.63;;;13.63;;
6131;SDS011;3097;42.692;23.278;2022-11-11T17:18:20;25.07;;;12.97;;
6131;SDS011;3097;42.692;23.278;2022-11-11T17:20:46;35.17;;;17.97;;
6131;SDS011;3097;42.692;23.278;2022-11-11T17:23:12;28.23;;;15.07;;
6131;SDS011;3097;42.692;23.278;2022-11-11T17:25:37;43.20;;;22.07;;
6131;SDS011;3097;42.692;23.278;2022-11-11T17:28:03;31.27;;;16.93;;
6131;SDS011;3097;42.692;23.278;2022-11-11T17:30:28;27.80;;;14.50;;